Time;durP1;ratioP1;P1;durP2;ratioP2;P2;SDS_P1;SDS_P2;PMS_P1;PMS_P2;Temp;Humidity;BMP_temperature;BMP_pressure;BME280_temperature;BME280_humidity;BME280_pressure;Samples;Min_cycle;Max_cycle;Signal;HPM_P1;HPM_P2
2023/11/07 00:01:03;;;;;;;74.70;66.67;;;9.20;99.90;;;;;;5037304;28;20158;-78
2023/11/07 00:03:29;;;;;;;84.03;75.73;;;9.10;99.90;;;;;;5037129;28;20197;-78
2023/11/07 00:05:54;;;;;;;75.90;67.80;;;9.10;99.90;;;;;;5037003;28;20405;-78
2023/11/07 00:08:20;;;;;;;78.20;70.23;;;9.10;99.90;;;;;;5036813;28;20197;-78
2023/11/07 00:10:46;;;;;;;86.40;78.07;;;9.00;99.90;;;;;;5036850;28;20177;-78
2023/11/07 00:13:11;;;;;;;82.83;74.23;;;9.00;99.90;;;;;;5036889;28;20204;-78
2023/11/07 00:15:37;;;;;;;83.40;75.20;;;9.00;99.90;;;;;;5036763;28;20170;-77
2023/11/07 00:18:03;;;;;;;77.00;68.93;;;8.90;99.90;;;;;;5036512;28;20161;-78
2023/11/07 00:20:28;;;;;;;97.77;88.00;;;8.90;99.90;;;;;;5090630;23;20250;-78
2023/11/07 00:22:54;;;;;;;79.03;70.83;;;8.90;99.90;;;;;;5088548;22;20733;-78
2023/11/07 00:25:19;;;;;;;88.27;79.40;;;8.90;99.90;;;;;;5019003;28;20212;-77
2023/11/07 00:27:45;;;;;;;101.53;92.00;;;8.80;99.90;;;;;;5036690;28;20168;-77
2023/11/07 00:30:11;;;;;;;112.90;102.67;;;8.80;99.90;;;;;;5036475;28;20162;-77
2023/11/07 00:32:37;;;;;;;90.70;82.17;;;8.80;99.90;;;;;;5036359;28;20165;-78
2023/11/07 00:35:03;;;;;;;93.50;84.80;;;8.80;99.90;;;;;;5036473;28;20479;-78
2023/11/07 00:37:28;;;;;;;91.23;82.60;;;8.70;99.90;;;;;;5036524;28;20252;-78
2023/11/07 00:39:54;;;;;;;89.90;81.43;;;8.70;99.90;;;;;;5018635;28;20452;-78
2023/11/07 00:42:19;;;;;;;93.80;84.70;;;8.70;99.90;;;;;;5018564;28;20166;-77
2023/11/07 00:44:46;;;;;;;87.83;79.37;;;8.70;99.90;;;;;;5035947;28;20272;-77
2023/11/07 00:47:11;;;;;;;89.75;81.15;;;8.70;99.90;;;;;;5018257;28;20170;-78
2023/11/07 00:49:37;;;;;;;94.43;85.83;;;8.70;99.90;;;;;;5018211;28;20176;-78
2023/11/07 00:52:03;;;;;;;84.47;76.10;;;8.70;99.90;;;;;;5036043;28;20296;-77
2023/11/07 00:54:28;;;;;;;95.13;86.30;;;8.60;99.90;;;;;;5018254;28;20239;-78
2023/11/07 00:56:54;;;;;;;96.40;87.20;;;8.60;99.90;;;;;;5036169;28;20926;-78
2023/11/07 00:59:20;;;;;;;103.57;94.17;;;8.60;99.90;;;;;;5035857;28;20606;-78
2023/11/07 01:01:45;;;;;;;105.87;96.27;;;8.60;99.90;;;;;;5035815;28;20162;-78
2023/11/07 01:04:11;;;;;;;104.90;95.43;;;8.50;99.90;;;;;;5035468;28;20186;-78
2023/11/07 01:06:36;;;;;;;105.13;95.43;;;8.50;99.90;;;;;;5035723;28;20162;-78
2023/11/07 01:09:05;;;;;;;90.30;81.47;;;8.40;99.90;;;;;;5035886;28;20257;-77
2023/11/07 01:11:31;;;;;;;102.78;93.35;;;8.40;99.90;;;;;;5036115;28;20173;-78
2023/11/07 01:13:56;;;;;;;102.33;92.87;;;8.40;99.90;;;;;;5035698;28;20192;-78
2023/11/07 01:16:23;;;;;;;92.23;83.80;;;8.40;99.90;;;;;;5035550;28;20158;-77
2023/11/07 01:18:49;;;;;;;107.18;97.50;;;8.50;99.90;;;;;;5017964;28;20544;-78
2023/11/07 01:21:14;;;;;;;110.10;100.37;;;8.40;99.90;;;;;;5035415;28;20173;-78
2023/11/07 01:23:40;;;;;;;99.93;90.37;;;8.50;99.90;;;;;;5035462;28;20193;-78
2023/11/07 01:26:06;;;;;;;93.07;84.13;;;8.50;99.90;;;;;;5035493;28;20170;-77
2023/11/07 01:28:31;;;;;;;90.53;81.97;;;8.50;99.90;;;;;;5035316;28;20244;-77
2023/11/07 01:30:57;;;;;;;101.10;91.53;;;8.50;99.90;;;;;;5035461;28;20686;-78
2023/11/07 01:33:23;;;;;;;103.17;93.57;;;8.40;99.90;;;;;;5035202;28;20593;-78
2023/11/07 01:35:48;;;;;;;96.47;87.77;;;8.40;99.90;;;;;;5035294;28;20173;-78
2023/11/07 01:38:14;;;;;;;98.43;89.63;;;8.30;99.90;;;;;;5035116;28;20219;-78
2023/11/07 01:40:40;;;;;;;98.30;89.30;;;8.40;99.90;;;;;;5035135;28;20166;-78
2023/11/07 01:43:15;;;;;;;117.03;107.17;;;8.30;99.90;;;;;;5017333;28;20269;-78
2023/11/07 01:45:42;;;;;;;95.82;86.65;;;8.30;99.90;;;;;;5034975;28;20153;-78
2023/11/07 01:48:11;;;;;;;110.15;100.18;;;8.20;99.90;;;;;;5017396;28;20168;-78
2023/11/07 01:50:37;;;;;;;86.75;78.35;;;8.20;99.90;;;;;;5034940;28;20162;-77
2023/11/07 01:53:06;;;;;;;95.13;86.32;;;8.10;99.90;;;;;;5035188;28;20194;-77
2023/11/07 01:55:33;;;;;;;109.75;100.07;;;8.00;99.90;;;;;;5034885;28;20158;-78
2023/11/07 01:58:03;;;;;;;82.13;73.80;;;8.00;99.90;;;;;;5034748;28;20169;-77
2023/11/07 02:00:29;;;;;;;82.78;74.55;;;8.00;99.90;;;;;;5034772;28;20177;-77
2023/11/07 02:02:58;;;;;;;87.35;78.63;;;8.00;99.90;;;;;;5034697;28;20206;-78
2023/11/07 02:05:24;;;;;;;83.03;74.35;;;8.00;99.90;;;;;;5034620;28;20182;-78
2023/11/07 02:07:50;;;;;;;80.15;71.72;;;8.00;99.90;;;;;;5034915;28;20659;-78
2023/11/07 02:10:16;;;;;;;76.50;68.20;;;7.90;99.90;;;;;;5034652;28;20162;-78
2023/11/07 02:12:41;;;;;;;95.30;86.33;;;7.90;99.90;;;;;;5034644;28;20658;-78
2023/11/07 02:15:35;;;;;;;120.07;109.80;;;7.90;99.90;;;;;;5033539;28;20177;-78
2023/11/07 02:18:01;;;;;;;94.78;86.03;;;7.90;99.90;;;;;;5031821;28;20177;-77
2023/11/07 02:20:26;;;;;;;97.97;88.60;;;8.00;99.90;;;;;;5034334;28;20801;-78
2023/11/07 02:23:28;;;;;;;88.27;79.23;;;8.00;99.90;;;;;;5016348;28;20321;-77
2023/11/07 02:25:54;;;;;;;80.53;72.10;;;8.00;99.90;;;;;;5009337;28;20614;-77
2023/11/07 02:28:21;;;;;;;89.83;80.87;;;7.90;99.90;;;;;;5034009;28;20201;-78
2023/11/07 02:30:47;;;;;;;77.55;69.20;;;7.80;99.90;;;;;;5034209;28;20185;-78
2023/11/07 02:33:14;;;;;;;80.03;71.75;;;7.80;99.90;;;;;;5034346;28;20182;-78
2023/11/07 02:35:43;;;;;;;93.43;84.45;;;7.80;99.90;;;;;;5034066;28;20162;-78
2023/11/07 02:38:10;;;;;;;85.07;76.53;;;7.80;99.90;;;;;;5034470;28;20166;-78
2023/11/07 02:40:36;;;;;;;97.22;87.90;;;7.80;99.90;;;;;;5034021;28;20189;-78
2023/11/07 02:43:04;;;;;;;78.63;70.53;;;7.70;99.90;;;;;;5033870;28;20201;-77
2023/11/07 02:45:30;;;;;;;86.55;77.82;;;7.60;99.90;;;;;;5033946;28;20164;-77
2023/11/07 02:47:56;;;;;;;94.80;85.63;;;7.50;99.90;;;;;;5033793;28;20161;-77
2023/11/07 02:50:22;;;;;;;91.72;82.88;;;7.40;99.90;;;;;;5033981;28;20170;-78
2023/11/07 02:52:48;;;;;;;74.35;66.32;;;7.40;99.90;;;;;;5033707;28;21863;-77
2023/11/07 02:55:15;;;;;;;86.25;77.70;;;7.30;99.90;;;;;;5033728;28;20596;-78
2023/11/07 02:57:40;;;;;;;78.90;70.75;;;7.30;99.90;;;;;;5033958;28;20166;-78
2023/11/07 03:00:10;;;;;;;94.90;85.70;;;7.40;99.90;;;;;;5033550;28;20685;-78
2023/11/07 03:02:42;;;;;;;81.22;73.05;;;7.40;99.90;;;;;;5015920;28;20196;-77
2023/11/07 03:05:08;;;;;;;88.47;79.50;;;7.30;99.90;;;;;;5033812;28;20170;-77
2023/11/07 03:07:34;;;;;;;87.30;78.83;;;7.30;99.90;;;;;;5033742;28;20169;-77
2023/11/07 03:10:05;;;;;;;89.28;80.68;;;7.30;99.90;;;;;;5033554;28;20162;-78
2023/11/07 03:12:31;;;;;;;88.70;79.80;;;7.30;99.90;;;;;;5033668;28;20151;-77
2023/11/07 03:14:56;;;;;;;101.40;91.97;;;7.20;99.90;;;;;;5033507;28;20599;-78
2023/11/07 03:17:24;;;;;;;76.37;68.17;;;7.10;99.90;;;;;;5015944;28;20169;-78
2023/11/07 03:19:53;;;;;;;86.50;77.95;;;7.10;99.90;;;;;;5033686;28;20488;-77
2023/11/07 03:22:21;;;;;;;103.70;94.00;;;7.00;99.90;;;;;;5033317;28;20260;-78
2023/11/07 03:27:17;;;;;;;81.15;72.88;;;7.00;99.90;;;;;;5034458;28;20201;-77
2023/11/07 03:29:43;;;;;;;82.17;73.97;;;7.00;99.90;;;;;;5019852;28;20547;-78
2023/11/07 03:32:09;;;;;;;71.13;61.63;;;7.00;99.90;;;;;;5037612;28;20166;-77
2023/11/07 03:34:35;;;;;;;73.03;62.58;;;7.10;99.90;;;;;;5019916;28;20240;-78
2023/11/07 03:37:01;;;;;;;76.47;68.53;;;7.00;99.90;;;;;;5038214;28;20200;-76
2023/11/07 03:39:26;;;;;;;97.13;87.93;;;7.10;99.90;;;;;;5037154;28;20193;-77
2023/11/07 03:41:52;;;;;;;89.67;80.80;;;7.00;99.90;;;;;;5019616;28;20170;-77
2023/11/07 03:44:17;;;;;;;106.73;97.03;;;7.10;99.90;;;;;;5037287;28;20181;-78
2023/11/07 03:46:43;;;;;;;102.30;92.77;;;7.10;99.90;;;;;;5037452;28;20166;-77
2023/11/07 03:49:09;;;;;;;96.57;87.77;;;7.30;99.90;;;;;;5037105;28;20168;-78
2023/11/07 03:51:34;;;;;;;111.17;100.73;;;7.40;99.90;;;;;;5037375;28;20170;-77
2023/11/07 03:54:00;;;;;;;102.87;93.50;;;7.40;99.90;;;;;;5037401;28;20181;-78
2023/11/07 03:56:27;;;;;;;99.03;89.93;;;7.50;99.90;;;;;;5019236;28;20174;-77
2023/11/07 03:58:52;;;;;;;101.05;91.78;;;7.50;99.90;;;;;;5037276;28;20190;-78
2023/11/07 04:01:18;;;;;;;131.67;120.87;;;7.60;99.90;;;;;;5037097;28;20215;-78
2023/11/07 04:03:44;;;;;;;114.53;105.00;;;7.60;99.90;;;;;;5036706;28;20182;-77
2023/11/07 04:06:09;;;;;;;100.20;90.97;;;7.60;99.90;;;;;;5037071;28;20245;-78
2023/11/07 04:08:35;;;;;;;116.77;106.93;;;7.60;99.90;;;;;;5037014;28;20255;-77
2023/11/07 04:11:01;;;;;;;102.70;93.60;;;7.60;99.90;;;;;;5037601;28;20162;-78
2023/11/07 04:13:27;;;;;;;105.22;96.00;;;7.70;99.90;;;;;;5018803;28;20196;-77
2023/11/07 04:15:57;;;;;;;122.07;111.93;;;7.70;99.90;;;;;;5037722;28;20642;-77
2023/11/07 04:18:23;;;;;;;132.63;122.00;;;7.70;99.90;;;;;;5036576;28;20169;-78
2023/11/07 04:20:50;;;;;;;125.15;115.28;;;7.70;99.90;;;;;;5036992;28;20253;-78
2023/11/07 04:23:16;;;;;;;112.90;103.45;;;7.70;99.90;;;;;;5036461;28;20182;-78
2023/11/07 04:25:42;;;;;;;119.20;109.53;;;7.70;99.90;;;;;;5036280;28;20181;-77
2023/11/07 04:28:09;;;;;;;124.53;114.30;;;7.70;99.90;;;;;;5036937;28;20166;-77
2023/11/07 04:30:34;;;;;;;116.20;106.68;;;7.70;99.90;;;;;;5019262;28;20166;-78
2023/11/07 04:33:00;;;;;;;125.97;115.57;;;7.70;99.90;;;;;;5036271;28;20178;-77
2023/11/07 04:35:26;;;;;;;110.80;101.33;;;7.70;99.90;;;;;;5036222;28;20169;-78
2023/11/07 04:37:53;;;;;;;121.50;111.43;;;7.70;99.90;;;;;;5035612;28;20162;-78
2023/11/07 04:40:19;;;;;;;123.65;113.47;;;7.70;99.90;;;;;;5036360;28;20534;-77
2023/11/07 04:42:45;;;;;;;112.93;103.47;;;7.80;99.90;;;;;;5036458;28;20168;-78
2023/11/07 04:45:11;;;;;;;114.10;104.53;;;7.80;99.90;;;;;;5036796;28;20639;-77
2023/11/07 04:47:37;;;;;;;107.53;98.03;;;7.80;99.90;;;;;;5036159;28;20158;-77
2023/11/07 04:50:04;;;;;;;131.00;120.40;;;7.80;99.90;;;;;;5036199;28;20205;-77
2023/11/07 04:52:33;;;;;;;121.88;111.97;;;7.80;99.90;;;;;;5036519;28;20166;-77
2023/11/07 04:54:59;;;;;;;144.27;133.13;;;7.80;99.90;;;;;;5036195;28;20580;-78
2023/11/07 04:57:28;;;;;;;121.13;111.28;;;7.80;99.90;;;;;;5035752;28;20208;-78
2023/11/07 04:59:54;;;;;;;117.30;107.57;;;7.80;99.90;;;;;;5035775;28;20189;-78
2023/11/07 05:02:20;;;;;;;144.43;133.02;;;7.90;99.90;;;;;;5035919;28;20169;-77
2023/11/07 05:04:45;;;;;;;111.77;102.23;;;7.90;99.90;;;;;;5018014;28;20185;-78
2023/11/07 05:07:12;;;;;;;124.13;114.10;;;7.90;99.90;;;;;;5035697;28;20158;-78
2023/11/07 05:09:38;;;;;;;129.57;119.15;;;8.00;99.90;;;;;;5035878;28;20745;-77
2023/11/07 05:12:05;;;;;;;122.87;112.87;;;8.00;99.90;;;;;;5035789;28;20224;-77
2023/11/07 05:14:32;;;;;;;123.28;113.30;;;8.10;99.90;;;;;;5035671;28;20535;-78
2023/11/07 05:17:01;;;;;;;128.70;118.43;;;8.20;99.90;;;;;;5017328;28;20554;-78
2023/11/07 05:19:26;;;;;;;130.70;120.50;;;8.20;99.90;;;;;;5035754;28;20594;-78
2023/11/07 05:21:52;;;;;;;134.80;124.43;;;8.20;99.90;;;;;;5035735;28;20170;-78
2023/11/07 05:24:18;;;;;;;139.70;128.77;;;8.30;99.90;;;;;;5035332;28;20248;-77
2023/11/07 05:26:46;;;;;;;126.27;115.87;;;8.40;99.90;;;;;;5035382;28;20185;-77
2023/11/07 05:29:15;;;;;;;139.90;129.35;;;8.50;99.90;;;;;;5035341;28;20172;-78
2023/11/07 05:31:41;;;;;;;136.65;125.97;;;8.50;99.90;;;;;;5035350;28;20177;-78
2023/11/07 05:34:07;;;;;;;144.50;133.80;;;8.50;99.90;;;;;;5035332;28;20193;-77
2023/11/07 05:36:33;;;;;;;139.37;128.83;;;8.60;99.90;;;;;;5035281;28;20170;-78
2023/11/07 05:38:59;;;;;;;131.20;120.85;;;8.60;99.90;;;;;;5035486;28;20181;-78
2023/11/07 05:41:29;;;;;;;141.30;130.67;;;8.70;99.90;;;;;;5035076;28;20158;-77
2023/11/07 05:43:55;;;;;;;125.18;115.15;;;8.70;99.90;;;;;;5017253;28;20272;-78
2023/11/07 05:46:21;;;;;;;141.90;131.30;;;8.70;99.90;;;;;;5034930;28;20687;-78
2023/11/07 05:48:51;;;;;;;133.50;123.13;;;8.70;99.90;;;;;;5017404;28;20321;-77
2023/11/07 05:51:19;;;;;;;133.02;122.72;;;8.80;99.90;;;;;;5034743;28;20166;-77
2023/11/07 05:53:45;;;;;;;150.32;139.30;;;8.80;99.90;;;;;;5035073;28;20193;-78
2023/11/07 05:56:12;;;;;;;136.93;126.15;;;8.90;99.90;;;;;;5034835;28;20181;-78
2023/11/07 05:58:37;;;;;;;129.43;119.22;;;8.90;99.90;;;;;;5017275;28;20196;-77
2023/11/07 06:01:04;;;;;;;139.30;128.67;;;8.90;99.90;;;;;;5034658;28;20169;-78
2023/11/07 06:03:30;;;;;;;153.15;142.05;;;9.00;99.90;;;;;;5034374;28;20208;-78
2023/11/07 06:05:56;;;;;;;137.00;126.38;;;9.00;99.90;;;;;;5035061;28;20211;-77
2023/11/07 06:08:22;;;;;;;134.57;123.97;;;9.00;99.90;;;;;;5034764;28;20260;-78
2023/11/07 06:10:48;;;;;;;143.43;132.70;;;9.00;99.90;;;;;;5034647;28;20162;-77
2023/11/07 06:13:14;;;;;;;148.40;137.43;;;9.00;99.90;;;;;;5034644;28;20315;-78
2023/11/07 06:15:40;;;;;;;135.37;124.67;;;9.10;99.90;;;;;;5034474;28;20158;-77
2023/11/07 06:18:06;;;;;;;158.80;147.13;;;9.10;99.90;;;;;;5034425;28;20817;-77
2023/11/07 06:20:32;;;;;;;152.77;141.63;;;9.10;99.90;;;;;;5034630;28;20453;-78
2023/11/07 06:22:58;;;;;;;139.70;129.00;;;9.20;99.90;;;;;;5034638;28;20655;-77
2023/11/07 06:25:24;;;;;;;148.07;137.27;;;9.20;99.90;;;;;;5034241;28;20436;-78
2023/11/07 06:27:51;;;;;;;159.63;147.90;;;9.10;99.90;;;;;;5016378;28;20531;-78
2023/11/07 06:30:18;;;;;;;151.02;140.13;;;9.20;99.90;;;;;;5034062;28;20165;-77
2023/11/07 06:32:44;;;;;;;160.45;148.68;;;9.10;99.90;;;;;;5033896;28;20157;-77
2023/11/07 06:35:11;;;;;;;137.95;127.43;;;9.20;99.90;;;;;;5033921;28;20168;-77
2023/11/07 06:37:36;;;;;;;137.52;127.13;;;9.20;99.90;;;;;;5015893;28;20219;-77
2023/11/07 06:40:25;;;;;;;135.50;125.07;;;9.20;99.90;;;;;;5033593;28;20602;-77
2023/11/07 06:42:52;;;;;;;149.77;138.90;;;9.20;99.90;;;;;;5033506;28;20216;-77
2023/11/07 06:45:19;;;;;;;148.40;137.32;;;9.20;99.90;;;;;;5033539;28;20738;-77
2023/11/07 06:47:46;;;;;;;146.18;135.30;;;9.20;99.90;;;;;;5033463;28;20170;-77
2023/11/07 06:50:14;;;;;;;148.55;137.23;;;9.20;99.90;;;;;;5033485;28;20665;-77
2023/11/07 06:52:49;;;;;;;151.40;140.45;;;9.20;99.90;;;;;;5033266;28;20312;-77
2023/11/07 06:55:15;;;;;;;139.60;128.82;;;9.20;99.90;;;;;;5015689;28;20256;-77
2023/11/07 06:57:42;;;;;;;163.32;151.85;;;9.20;99.90;;;;;;5033381;28;20173;-77
2023/11/07 07:00:09;;;;;;;153.80;142.73;;;9.20;99.90;;;;;;5033560;28;20635;-77
2023/11/07 07:02:38;;;;;;;137.80;127.40;;;9.20;99.90;;;;;;5032652;28;20245;-77
2023/11/07 07:05:12;;;;;;;134.43;124.05;;;9.20;99.90;;;;;;5033219;28;20173;-77
2023/11/07 07:07:41;;;;;;;142.85;132.20;;;9.30;99.90;;;;;;5033310;28;20147;-77
2023/11/07 07:10:09;;;;;;;142.52;131.77;;;9.30;99.90;;;;;;5033558;28;20165;-77
2023/11/07 07:12:35;;;;;;;157.80;146.55;;;9.30;99.90;;;;;;5033062;28;20646;-77
2023/11/07 07:15:09;;;;;;;135.48;125.00;;;9.30;99.90;;;;;;5033160;28;20205;-77
2023/11/07 07:17:35;;;;;;;137.25;126.90;;;9.40;99.90;;;;;;5033411;28;20551;-77
2023/11/07 07:20:03;;;;;;;120.80;110.88;;;9.50;99.90;;;;;;5033369;28;20248;-77
2023/11/07 07:22:28;;;;;;;127.72;117.68;;;9.50;99.90;;;;;;5015386;28;20169;-77
2023/11/07 07:24:55;;;;;;;137.87;127.43;;;9.50;99.90;;;;;;5033015;28;20220;-77
2023/11/07 07:27:26;;;;;;;135.85;125.22;;;9.50;99.90;;;;;;5033061;28;20174;-77
2023/11/07 07:29:53;;;;;;;139.60;129.18;;;9.50;99.90;;;;;;5032950;28;20185;-77
2023/11/07 07:32:20;;;;;;;128.05;117.68;;;9.50;99.90;;;;;;5033555;28;20170;-77
2023/11/07 07:34:46;;;;;;;149.43;138.50;;;9.50;99.90;;;;;;5032918;28;20264;-77
2023/11/07 07:37:11;;;;;;;148.90;138.13;;;9.60;99.90;;;;;;5033257;28;20249;-77
2023/11/07 07:39:38;;;;;;;135.40;125.13;;;9.60;99.90;;;;;;5033147;28;20452;-77
2023/11/07 07:42:10;;;;;;;138.98;128.60;;;9.60;99.90;;;;;;5015789;28;20552;-77
2023/11/07 07:44:36;;;;;;;135.13;124.82;;;9.70;99.90;;;;;;5015156;28;20186;-77
2023/11/07 07:47:02;;;;;;;149.70;138.35;;;9.70;99.90;;;;;;5033137;28;20173;-77
2023/11/07 07:49:30;;;;;;;131.52;121.13;;;9.70;99.90;;;;;;5032942;28;20227;-77
2023/11/07 07:51:58;;;;;;;116.60;106.15;;;9.70;99.90;;;;;;5032807;28;20162;-77
2023/11/07 07:54:24;;;;;;;121.43;111.80;;;9.80;99.90;;;;;;5032779;28;20216;-77
2023/11/07 07:56:51;;;;;;;110.55;101.10;;;9.80;99.90;;;;;;5032828;28;20220;-77
2023/11/07 07:59:22;;;;;;;105.88;96.57;;;9.80;99.90;;;;;;5032934;28;20194;-77
2023/11/07 08:01:53;;;;;;;130.48;119.88;;;9.80;99.90;;;;;;5032637;28;20620;-77
2023/11/07 08:04:22;;;;;;;110.95;101.43;;;9.90;99.90;;;;;;5032567;28;20197;-77
2023/11/07 08:06:48;;;;;;;121.47;111.40;;;9.90;99.90;;;;;;5032649;28;20180;-77
2023/11/07 08:09:15;;;;;;;109.93;100.23;;;9.80;99.90;;;;;;5032915;28;20643;-77
2023/11/07 08:11:41;;;;;;;103.05;93.90;;;10.00;99.90;;;;;;5033184;28;20393;-77
2023/11/07 08:14:07;;;;;;;114.65;104.75;;;10.00;99.90;;;;;;5035865;28;20540;-77
2023/11/07 08:16:33;;;;;;;106.67;97.37;;;10.10;99.90;;;;;;5036317;28;20220;-77
2023/11/07 08:18:59;;;;;;;110.63;101.27;;;10.10;99.90;;;;;;5018641;28;20509;-77
2023/11/07 08:21:27;;;;;;;114.03;104.23;;;10.10;99.90;;;;;;5036141;28;20173;-77
2023/11/07 08:23:53;;;;;;;100.28;91.25;;;10.20;99.90;;;;;;5036080;28;20909;-77
2023/11/07 08:26:19;;;;;;;102.97;93.90;;;10.20;99.90;;;;;;5036003;28;20188;-77
2023/11/07 08:28:45;;;;;;;111.28;101.25;;;10.20;99.90;;;;;;5036264;28;20166;-77
2023/11/07 08:31:14;;;;;;;103.87;94.40;;;10.20;99.90;;;;;;5036076;28;20520;-77
2023/11/07 08:33:40;;;;;;;106.32;97.13;;;10.20;99.90;;;;;;5036242;28;20198;-77
2023/11/07 08:36:13;;;;;;;114.35;104.88;;;10.20;99.90;;;;;;5018155;28;20174;-77
2023/11/07 08:38:42;;;;;;;122.38;112.30;;;10.20;99.90;;;;;;5018099;28;20189;-77
2023/11/07 08:41:08;;;;;;;102.47;93.18;;;10.30;99.90;;;;;;5035849;28;20174;-77
2023/11/07 08:43:34;;;;;;;103.50;94.53;;;10.20;99.90;;;;;;5035944;28;20189;-77
2023/11/07 08:46:00;;;;;;;105.23;96.20;;;10.30;99.90;;;;;;5036040;28;20188;-77
2023/11/07 08:48:26;;;;;;;102.50;93.47;;;10.30;99.90;;;;;;5017987;28;20166;-77
2023/11/07 08:50:51;;;;;;;103.30;94.40;;;10.40;99.90;;;;;;5035667;28;20170;-77
2023/11/07 08:53:18;;;;;;;96.03;87.40;;;10.40;99.90;;;;;;5035733;28;20181;-77
2023/11/07 08:55:44;;;;;;;101.05;92.10;;;10.40;99.90;;;;;;5035905;28;20216;-77
2023/11/07 08:58:10;;;;;;;109.50;100.23;;;10.40;99.90;;;;;;5035662;28;20170;-77
2023/11/07 09:00:35;;;;;;;97.43;88.77;;;10.50;99.90;;;;;;5035617;28;20440;-77
2023/11/07 09:03:02;;;;;;;89.17;80.67;;;10.60;99.90;;;;;;5035636;28;20186;-77
2023/11/07 09:05:28;;;;;;;82.20;74.03;;;10.60;99.90;;;;;;5017650;28;20596;-77
2023/11/07 09:07:54;;;;;;;79.75;71.72;;;10.80;99.90;;;;;;5017680;28;20574;-77
2023/11/07 09:10:20;;;;;;;83.23;75.23;;;10.90;99.90;;;;;;5035273;28;20164;-77
2023/11/07 09:12:46;;;;;;;77.20;69.03;;;11.00;99.90;;;;;;5035115;28;20211;-77
2023/11/07 09:15:12;;;;;;;85.43;77.30;;;11.10;99.90;;;;;;5035420;28;20709;-77
2023/11/07 09:17:39;;;;;;;70.05;62.53;;;11.10;99.90;;;;;;5035187;28;20166;-77
2023/11/07 09:20:09;;;;;;;70.25;57.40;;;11.20;99.90;;;;;;5035017;28;20267;-77
2023/11/07 09:22:36;;;;;;;67.53;59.25;;;11.20;99.90;;;;;;5035056;28;20739;-77
2023/11/07 09:25:06;;;;;;;66.70;57.65;;;11.10;99.90;;;;;;5034484;28;20657;-77
2023/11/07 09:27:32;;;;;;;68.45;52.63;;;11.00;99.90;;;;;;5017225;28;20170;-77
2023/11/07 09:29:58;;;;;;;69.97;62.43;;;11.00;99.90;;;;;;5034996;28;20173;-77
2023/11/07 09:32:24;;;;;;;73.73;65.93;;;10.90;99.90;;;;;;5017175;28;20165;-77
2023/11/07 09:34:49;;;;;;;85.20;76.88;;;11.00;99.90;;;;;;5035118;28;20575;-77
2023/11/07 09:37:16;;;;;;;82.73;74.63;;;11.00;99.90;;;;;;5098441;22;20165;-77
2023/11/07 09:39:42;;;;;;;73.72;65.88;;;11.20;99.90;;;;;;5016324;28;20206;-77
2023/11/07 09:42:10;;;;;;;69.57;62.07;;;11.40;99.90;;;;;;5034702;28;20661;-77
2023/11/07 09:44:39;;;;;;;66.78;57.42;;;11.60;99.90;;;;;;5016834;28;20193;-77
2023/11/07 09:47:09;;;;;;;65.68;53.10;;;11.80;99.90;;;;;;5034993;28;20647;-77
2023/11/07 09:49:34;;;;;;;65.57;54.15;;;12.00;98.40;;;;;;5016798;28;20173;-77
2023/11/07 09:52:06;;;;;;;59.57;42.00;;;12.10;90.30;;;;;;5034794;28;20508;-77
2023/11/07 09:54:33;;;;;;;60.45;43.10;;;12.10;63.60;;;;;;5034515;28;20850;-77
2023/11/07 09:57:08;;;;;;;60.58;43.90;;;12.00;64.80;;;;;;5034439;28;20173;-77
2023/11/07 09:59:38;;;;;;;59.53;38.35;;;12.00;58.40;;;;;;5034525;28;20193;-77
2023/11/07 10:02:06;;;;;;;62.95;44.78;;;12.00;51.20;;;;;;5034379;28;20177;-77
2023/11/07 10:04:34;;;;;;;57.42;37.22;;;11.90;38.50;;;;;;5034194;28;20667;-77
2023/11/07 10:07:00;;;;;;;58.53;39.47;;;12.00;41.10;;;;;;5016948;28;20641;-77
2023/11/07 10:09:30;;;;;;;62.13;41.73;;;12.00;43.60;;;;;;5034773;28;20253;-77
2023/11/07 10:11:56;;;;;;;57.40;36.08;;;12.00;45.60;;;;;;5034525;28;20146;-77
2023/11/07 10:14:22;;;;;;;59.60;42.22;;;11.90;41.90;;;;;;5034164;28;20196;-77
2023/11/07 10:16:53;;;;;;;58.22;39.97;;;12.00;45.10;;;;;;5016335;28;20547;-78
2023/11/07 10:19:24;;;;;;;64.15;49.10;;;12.00;46.90;;;;;;5034253;28;20189;-77
2023/11/07 10:21:52;;;;;;;60.80;44.88;;;11.90;46.90;;;;;;5034470;28;20173;-77
2023/11/07 10:24:18;;;;;;;60.85;41.17;;;11.90;41.90;;;;;;5033976;28;20243;-77
2023/11/07 10:26:58;;;;;;;62.67;50.03;;;12.00;47.70;;;;;;5033990;28;20166;-77
2023/11/07 10:29:32;;;;;;;62.58;46.28;;;12.00;54.00;;;;;;5034212;28;20166;-77
2023/11/07 10:32:06;;;;;;;58.67;39.05;;;12.00;56.50;;;;;;5033849;28;20150;-77
2023/11/07 10:34:32;;;;;;;60.05;37.60;;;12.20;45.10;;;;;;5016068;28;20188;-77
2023/11/07 10:37:01;;;;;;;56.00;32.78;;;12.20;24.70;;;;;;5032853;28;20264;-77
2023/11/07 10:39:28;;;;;;;52.67;27.35;;;12.30;10.30;;;;;;5033588;28;20698;-77
2023/11/07 10:41:58;;;;;;;54.38;28.38;;;12.40;5.10;;;;;;5033715;28;20173;-78
2023/11/07 10:44:29;;;;;;;47.13;14.32;;;12.50;7.00;;;;;;5033543;28;20181;-77
2023/11/07 10:46:58;;;;;;;50.78;14.20;;;12.60;1.00;;;;;;5033711;28;20244;-77
2023/11/07 10:49:25;;;;;;;46.35;15.18;;;12.60;1.00;;;;;;5033941;28;20500;-78
2023/11/07 10:51:52;;;;;;;46.00;14.43;;;12.70;1.00;;;;;;5033549;28;20170;-77
2023/11/07 10:54:21;;;;;;;42.95;10.75;;;12.70;1.00;;;;;;5015631;28;20243;-77
2023/11/07 10:56:49;;;;;;;44.72;8.63;;;12.80;1.00;;;;;;5033367;28;20171;-77
2023/11/07 10:59:24;;;;;;;41.13;6.97;;;12.80;1.00;;;;;;5033219;28;20186;-77
2023/11/07 11:01:51;;;;;;;41.30;5.90;;;12.90;1.00;;;;;;5033315;28;20157;-77
2023/11/07 11:04:20;;;;;;;41.92;9.07;;;13.00;1.00;;;;;;5033185;28;20555;-77
2023/11/07 11:06:52;;;;;;;40.47;9.15;;;13.10;1.00;;;;;;5033173;28;20531;-77
2023/11/07 11:09:23;;;;;;;39.50;7.97;;;13.20;1.00;;;;;;5015483;28;20535;-77
2023/11/07 11:11:51;;;;;;;37.70;6.10;;;13.30;1.00;;;;;;5015511;28;20174;-77
2023/11/07 11:14:17;;;;;;;38.47;6.80;;;13.40;1.00;;;;;;5033297;28;20681;-77
2023/11/07 11:16:44;;;;;;;38.05;8.05;;;13.60;1.00;;;;;;5033309;28;20461;-77
2023/11/07 11:19:23;;;;;;;35.85;4.30;;;13.70;1.00;;;;;;5033002;28;20201;-77
2023/11/07 11:22:27;;;;;;;36.53;4.93;;;13.70;1.00;;;;;;5015038;28;20543;-77
2023/11/07 11:25:15;;;;;;;36.67;4.05;;;13.60;1.00;;;;;;5032922;28;20186;-77
2023/11/07 11:27:45;;;;;;;32.67;3.20;;;13.60;1.00;;;;;;5032785;28;20166;-77
2023/11/07 11:30:14;;;;;;;34.85;4.07;;;13.50;1.00;;;;;;5033282;28;20934;-77
2023/11/07 11:35:17;;;;;;;36.53;3.70;;;13.10;1.00;;;;;;5031625;28;20216;-77
2023/11/07 11:38:12;;;;;;;34.97;4.05;;;12.90;1.00;;;;;;5033380;28;20231;-77
2023/11/07 11:40:59;;;;;;;36.97;5.00;;;12.80;1.00;;;;;;5015368;28;20202;-77
2023/11/07 11:43:55;;;;;;;36.72;4.53;;;12.80;1.00;;;;;;5032861;28;20666;-77
2023/11/07 11:46:39;;;;;;;35.78;4.85;;;12.90;1.00;;;;;;5015137;28;20639;-77
2023/11/07 11:49:12;;;;;;;36.63;3.90;;;12.90;1.00;;;;;;5036437;28;20169;-77
2023/11/07 11:51:42;;;;;;;37.55;4.82;;;12.90;1.00;;;;;;5037150;28;20146;-77
2023/11/07 11:54:12;;;;;;;36.22;4.53;;;12.90;1.00;;;;;;5036745;28;20185;-77
2023/11/07 11:56:50;;;;;;;36.13;3.85;;;12.90;1.00;;;;;;5036918;28;20630;-77
2023/11/07 11:59:29;;;;;;;34.05;3.78;;;13.00;1.00;;;;;;5036841;28;20551;-77
2023/11/07 12:01:58;;;;;;;34.28;3.60;;;13.10;1.00;;;;;;5018464;28;20174;-77
2023/11/07 12:04:36;;;;;;;37.50;4.18;;;13.10;1.00;;;;;;5018748;28;20186;-77
2023/11/07 12:07:14;;;;;;;34.15;3.00;;;13.10;1.00;;;;;;5036790;28;20189;-76
2023/11/07 12:09:42;;;;;;;34.40;3.60;;;13.00;1.00;;;;;;5036414;28;20161;-77
2023/11/07 12:12:09;;;;;;;32.65;3.60;;;13.00;1.00;;;;;;5036336;28;20182;-77
2023/11/07 12:14:54;;;;;;;34.72;3.88;;;12.90;1.00;;;;;;5036892;28;20188;-77
2023/11/07 12:17:23;;;;;;;34.08;3.53;;;13.00;1.00;;;;;;5036344;28;20177;-77
2023/11/07 12:20:00;;;;;;;32.88;4.20;;;13.20;1.00;;;;;;5036727;28;20208;-77
2023/11/07 12:22:26;;;;;;;35.15;3.78;;;13.20;1.00;;;;;;5018518;28;20584;-76
2023/11/07 12:25:16;;;;;;;37.63;3.60;;;13.20;1.00;;;;;;5036074;28;20209;-77
2023/11/07 12:28:03;;;;;;;33.03;3.45;;;13.30;1.00;;;;;;5036427;28;20146;-76
2023/11/07 12:30:34;;;;;;;35.03;3.00;;;13.20;1.00;;;;;;5036066;28;20535;-76
2023/11/07 12:33:09;;;;;;;32.83;2.95;;;13.20;1.00;;;;;;5035825;28;20272;-77
2023/11/07 12:35:35;;;;;;;33.67;3.90;;;13.10;1.00;;;;;;5035930;28;20199;-76
2023/11/07 12:38:06;;;;;;;35.13;3.88;;;13.20;1.00;;;;;;5035912;28;20165;-76